Yanzhou, China
Current Conditions -  °F | °C
As of 10:00 AM on Tuesday 25 Nov 2014 (Local Time) from ZSJN Reporting Station
Haze Haze  
Wind Chill: 42°   Ceiling: Unl
Heat Index: 45°   Visibility: 1.5mi
Dew Point: 37°   Wind: 4mph
Humidity: 76%   Direction: 130°SE
Pressure: 30.21"   Gusts: NA
Location:  35.55°N, 116.82°E
Report Text: ZSJN 250200Z 13002MPS 100V180 2400 BR NSC 07/03 Q1023 BECMGTL0330 3000
Loading
Personal Weather Stations






























Interactive Weather Map New forecast layout! Learn more

10-Day Weather Forecast

Advertisements
Track Severe Weather on mobile